sensor_id;sensor_type;location;lat;lon;timestamp;temperature;humidity
8067;DHT22;4076;48.076;9.118;2023-02-15T00:01:15;-1.10;99.90
8067;DHT22;4076;48.076;9.118;2023-02-15T00:03:41;-1.20;99.90
8067;DHT22;4076;48.076;9.118;2023-02-15T00:06:06;-1.10;99.90
8067;DHT22;4076;48.076;9.118;2023-02-15T00:08:32;-1.20;99.90
8067;DHT22;4076;48.076;9.118;2023-02-15T00:11:08;-1.20;99.90
8067;DHT22;4076;48.076;9.118;2023-02-15T00:13:35;-1.10;99.90
8067;DHT22;4076;48.076;9.118;2023-02-15T00:16:03;-1.10;99.90
8067;DHT22;4076;48.076;9.118;2023-02-15T00:18:29;-1.00;99.90
8067;DHT22;4076;48.076;9.118;2023-02-15T00:20:55;-0.90;99.90
8067;DHT22;4076;48.076;9.118;2023-02-15T00:23:20;-0.90;99.90
8067;DHT22;4076;48.076;9.118;2023-02-15T00:25:46;-0.80;99.90
8067;DHT22;4076;48.076;9.118;2023-02-15T00:28:12;-0.80;99.90
8067;DHT22;4076;48.076;9.118;2023-02-15T00:30:37;-0.90;99.90
8067;DHT22;4076;48.076;9.118;2023-02-15T00:33:03;-0.90;99.90
8067;DHT22;4076;48.076;9.118;2023-02-15T00:35:28;-0.90;99.90
8067;DHT22;4076;48.076;9.118;2023-02-15T00:37:54;-1.00;99.90
8067;DHT22;4076;48.076;9.118;2023-02-15T00:40:20;-1.00;99.90
8067;DHT22;4076;48.076;9.118;2023-02-15T00:42:46;-0.90;99.90
8067;DHT22;4076;48.076;9.118;2023-02-15T00:45:12;-0.70;99.90
8067;DHT22;4076;48.076;9.118;2023-02-15T00:47:37;-1.10;99.90
8067;DHT22;4076;48.076;9.118;2023-02-15T00:50:03;-1.00;99.90
8067;DHT22;4076;48.076;9.118;2023-02-15T00:52:29;-1.10;99.90
8067;DHT22;4076;48.076;9.118;2023-02-15T00:54:55;-1.10;99.90
8067;DHT22;4076;48.076;9.118;2023-02-15T00:57:20;-1.10;99.90
8067;DHT22;4076;48.076;9.118;2023-02-15T00:59:46;-1.00;99.90
8067;DHT22;4076;48.076;9.118;2023-02-15T01:02:11;-1.10;99.90
8067;DHT22;4076;48.076;9.118;2023-02-15T01:04:37;-1.20;99.90
8067;DHT22;4076;48.076;9.118;2023-02-15T01:07:02;-1.20;99.90
8067;DHT22;4076;48.076;9.118;2023-02-15T01:09:29;-1.20;99.90
8067;DHT22;4076;48.076;9.118;2023-02-15T01:11:54;-1.20;99.90
8067;DHT22;4076;48.076;9.118;2023-02-15T01:14:20;-1.20;99.90
8067;DHT22;4076;48.076;9.118;2023-02-15T01:16:45;-1.20;99.90
8067;DHT22;4076;48.076;9.118;2023-02-15T01:19:12;-1.20;99.90
8067;DHT22;4076;48.076;9.118;2023-02-15T01:21:38;-1.20;99.90
8067;DHT22;4076;48.076;9.118;2023-02-15T01:24:13;-1.20;99.90
8067;DHT22;4076;48.076;9.118;2023-02-15T01:26:39;-1.30;99.90
8067;DHT22;4076;48.076;9.118;2023-02-15T01:29:05;-1.30;99.90
8067;DHT22;4076;48.076;9.118;2023-02-15T01:31:31;-1.40;99.90
8067;DHT22;4076;48.076;9.118;2023-02-15T01:33:56;-1.40;99.90
8067;DHT22;4076;48.076;9.118;2023-02-15T01:36:22;-1.40;99.90
8067;DHT22;4076;48.076;9.118;2023-02-15T01:38:47;-1.40;99.90
8067;DHT22;4076;48.076;9.118;2023-02-15T01:41:13;-1.40;99.90
8067;DHT22;4076;48.076;9.118;2023-02-15T01:43:58;-1.40;99.90
8067;DHT22;4076;48.076;9.118;2023-02-15T01:46:34;-1.50;99.90
8067;DHT22;4076;48.076;9.118;2023-02-15T01:49:04;-1.60;99.90
8067;DHT22;4076;48.076;9.118;2023-02-15T01:51:34;-1.70;99.90
8067;DHT22;4076;48.076;9.118;2023-02-15T01:54:29;-1.80;99.90
8067;DHT22;4076;48.076;9.118;2023-02-15T01:57:00;-1.90;99.90
8067;DHT22;4076;48.076;9.118;2023-02-15T01:59:28;-2.00;99.90
8067;DHT22;4076;48.076;9.118;2023-02-15T02:01:58;-2.10;99.90
8067;DHT22;4076;48.076;9.118;2023-02-15T02:06:57;-2.20;99.90
8067;DHT22;4076;48.076;9.118;2023-02-15T02:09:24;-2.30;99.90
8067;DHT22;4076;48.076;9.118;2023-02-15T02:11:50;-2.40;99.90
8067;DHT22;4076;48.076;9.118;2023-02-15T02:14:16;-2.50;99.90
8067;DHT22;4076;48.076;9.118;2023-02-15T02:17:14;-2.60;99.90
8067;DHT22;4076;48.076;9.118;2023-02-15T02:36:54;-2.80;99.90
8067;DHT22;4076;48.076;9.118;2023-02-15T02:39:46;-2.90;99.90
8067;DHT22;4076;48.076;9.118;2023-02-15T02:42:31;-2.90;99.90
8067;DHT22;4076;48.076;9.118;2023-02-15T02:45:07;-3.00;99.90
8067;DHT22;4076;48.076;9.118;2023-02-15T02:47:39;-3.00;99.90
8067;DHT22;4076;48.076;9.118;2023-02-15T02:50:08;-3.00;99.90
8067;DHT22;4076;48.076;9.118;2023-02-15T02:52:41;-3.10;99.90
8067;DHT22;4076;48.076;9.118;2023-02-15T03:00:34;-3.10;99.90
8067;DHT22;4076;48.076;9.118;2023-02-15T03:03:04;-3.00;99.90
8067;DHT22;4076;48.076;9.118;2023-02-15T03:05:33;-3.00;99.90
8067;DHT22;4076;48.076;9.118;2023-02-15T03:08:02;-2.90;99.90
8067;DHT22;4076;48.076;9.118;2023-02-15T03:10:32;-2.90;99.90
8067;DHT22;4076;48.076;9.118;2023-02-15T03:12:59;-2.90;99.90
8067;DHT22;4076;48.076;9.118;2023-02-15T03:15:30;-2.90;99.90
8067;DHT22;4076;48.076;9.118;2023-02-15T03:18:18;-2.90;99.90
8067;DHT22;4076;48.076;9.118;2023-02-15T03:20:46;-3.00;99.90
8067;DHT22;4076;48.076;9.118;2023-02-15T03:23:21;-3.00;99.90
8067;DHT22;4076;48.076;9.118;2023-02-15T03:26:08;-3.20;99.90
8067;DHT22;4076;48.076;9.118;2023-02-15T03:28:42;-3.20;99.90
8067;DHT22;4076;48.076;9.118;2023-02-15T03:31:10;-3.30;99.90
8067;DHT22;4076;48.076;9.118;2023-02-15T03:33:42;-3.30;99.90
8067;DHT22;4076;48.076;9.118;2023-02-15T03:42:24;-3.50;99.90
8067;DHT22;4076;48.076;9.118;2023-02-15T03:44:31;-3.50;99.90
8067;DHT22;4076;48.076;9.118;2023-02-15T03:47:05;-3.60;99.90
8067;DHT22;4076;48.076;9.118;2023-02-15T03:52:23;-3.60;99.90
8067;DHT22;4076;48.076;9.118;2023-02-15T03:54:51;-3.70;99.90
8067;DHT22;4076;48.076;9.118;2023-02-15T03:57:26;-3.70;99.90
8067;DHT22;4076;48.076;9.118;2023-02-15T04:00:15;-3.80;99.90
8067;DHT22;4076;48.076;9.118;2023-02-15T04:05:28;-3.80;99.90
8067;DHT22;4076;48.076;9.118;2023-02-15T04:07:54;-3.90;99.90
8067;DHT22;4076;48.076;9.118;2023-02-15T04:10:19;-3.90;99.90
8067;DHT22;4076;48.076;9.118;2023-02-15T04:13:03;-3.90;99.90
8067;DHT22;4076;48.076;9.118;2023-02-15T04:15:29;-3.80;99.90
8067;DHT22;4076;48.076;9.118;2023-02-15T04:18:14;-3.80;99.90
8067;DHT22;4076;48.076;9.118;2023-02-15T04:20:43;-3.80;99.90
8067;DHT22;4076;48.076;9.118;2023-02-15T04:23:27;-3.80;99.90
8067;DHT22;4076;48.076;9.118;2023-02-15T04:26:11;-3.90;99.90
8067;DHT22;4076;48.076;9.118;2023-02-15T04:28:37;-4.00;99.90
8067;DHT22;4076;48.076;9.118;2023-02-15T04:31:02;-4.00;99.90
8067;DHT22;4076;48.076;9.118;2023-02-15T04:33:28;-4.00;99.90
8067;DHT22;4076;48.076;9.118;2023-02-15T04:35:54;-4.00;99.90
8067;DHT22;4076;48.076;9.118;2023-02-15T04:38:19;-4.00;99.90
8067;DHT22;4076;48.076;9.118;2023-02-15T04:40:50;-4.10;99.90
8067;DHT22;4076;48.076;9.118;2023-02-15T04:43:16;-4.00;99.90
8067;DHT22;4076;48.076;9.118;2023-02-15T04:45:41;-4.00;99.90
8067;DHT22;4076;48.076;9.118;2023-02-15T04:48:12;-4.00;99.90
8067;DHT22;4076;48.076;9.118;2023-02-15T04:50:37;-4.10;99.90
8067;DHT22;4076;48.076;9.118;2023-02-15T04:53:03;-4.10;99.90
8067;DHT22;4076;48.076;9.118;2023-02-15T04:55:29;-4.10;99.90
8067;DHT22;4076;48.076;9.118;2023-02-15T04:57:54;-4.10;99.90
8067;DHT22;4076;48.076;9.118;2023-02-15T05:00:20;-4.20;99.90
8067;DHT22;4076;48.076;9.118;2023-02-15T05:02:45;-4.20;99.90
8067;DHT22;4076;48.076;9.118;2023-02-15T05:05:11;-4.20;99.90
8067;DHT22;4076;48.076;9.118;2023-02-15T05:07:38;-4.20;99.90
8067;DHT22;4076;48.076;9.118;2023-02-15T05:10:04;-4.20;99.90
8067;DHT22;4076;48.076;9.118;2023-02-15T05:12:29;-4.20;99.90
8067;DHT22;4076;48.076;9.118;2023-02-15T05:14:55;-4.20;99.90
8067;DHT22;4076;48.076;9.118;2023-02-15T05:17:20;-4.20;99.90
8067;DHT22;4076;48.076;9.118;2023-02-15T05:19:46;-4.10;99.90
8067;DHT22;4076;48.076;9.118;2023-02-15T05:22:12;-4.10;99.90
8067;DHT22;4076;48.076;9.118;2023-02-15T05:24:37;-4.10;99.90
8067;DHT22;4076;48.076;9.118;2023-02-15T05:27:21;-4.20;99.90
8067;DHT22;4076;48.076;9.118;2023-02-15T05:30:06;-4.30;99.90
8067;DHT22;4076;48.076;9.118;2023-02-15T05:32:37;-4.20;99.90
8067;DHT22;4076;48.076;9.118;2023-02-15T05:35:04;-4.30;99.90
8067;DHT22;4076;48.076;9.118;2023-02-15T05:37:30;-4.30;99.90
8067;DHT22;4076;48.076;9.118;2023-02-15T05:39:55;-4.30;99.90
8067;DHT22;4076;48.076;9.118;2023-02-15T05:42:21;-4.40;99.90
8067;DHT22;4076;48.076;9.118;2023-02-15T05:44:46;-4.40;99.90
8067;DHT22;4076;48.076;9.118;2023-02-15T05:47:12;-4.40;99.90
8067;DHT22;4076;48.076;9.118;2023-02-15T05:49:37;-4.40;99.90
8067;DHT22;4076;48.076;9.118;2023-02-15T05:52:03;-4.40;99.90
8067;DHT22;4076;48.076;9.118;2023-02-15T05:54:29;-4.40;99.90
8067;DHT22;4076;48.076;9.118;2023-02-15T05:56:55;-4.40;99.90
8067;DHT22;4076;48.076;9.118;2023-02-15T05:59:20;-4.40;99.90
8067;DHT22;4076;48.076;9.118;2023-02-15T06:01:46;-4.40;99.90
8067;DHT22;4076;48.076;9.118;2023-02-15T06:04:12;-4.40;99.90
8067;DHT22;4076;48.076;9.118;2023-02-15T06:06:38;-4.70;99.90
8067;DHT22;4076;48.076;9.118;2023-02-15T06:09:03;-4.50;99.90
8067;DHT22;4076;48.076;9.118;2023-02-15T06:11:29;-4.50;99.90
8067;DHT22;4076;48.076;9.118;2023-02-15T06:13:55;-4.50;99.90
8067;DHT22;4076;48.076;9.118;2023-02-15T06:16:20;-4.60;99.90
8067;DHT22;4076;48.076;9.118;2023-02-15T06:18:46;-4.60;99.90
8067;DHT22;4076;48.076;9.118;2023-02-15T06:21:12;-4.60;99.90
8067;DHT22;4076;48.076;9.118;2023-02-15T06:23:38;-4.60;99.90
8067;DHT22;4076;48.076;9.118;2023-02-15T06:26:03;-4.60;99.90
8067;DHT22;4076;48.076;9.118;2023-02-15T06:28:29;-4.50;99.90
8067;DHT22;4076;48.076;9.118;2023-02-15T06:30:54;-4.50;99.90
8067;DHT22;4076;48.076;9.118;2023-02-15T06:33:20;-4.50;99.90
8067;DHT22;4076;48.076;9.118;2023-02-15T06:35:46;-4.50;99.90
8067;DHT22;4076;48.076;9.118;2023-02-15T06:38:12;-4.60;99.90
8067;DHT22;4076;48.076;9.118;2023-02-15T06:40:37;-4.50;99.90
8067;DHT22;4076;48.076;9.118;2023-02-15T06:43:03;-4.40;99.90
8067;DHT22;4076;48.076;9.118;2023-02-15T06:45:29;-4.40;99.90
8067;DHT22;4076;48.076;9.118;2023-02-15T06:47:55;-4.40;99.90
8067;DHT22;4076;48.076;9.118;2023-02-15T06:50:20;-4.40;99.90
8067;DHT22;4076;48.076;9.118;2023-02-15T06:52:46;-4.40;99.90
8067;DHT22;4076;48.076;9.118;2023-02-15T06:55:11;-4.40;99.90
8067;DHT22;4076;48.076;9.118;2023-02-15T06:57:37;-4.30;99.90
8067;DHT22;4076;48.076;9.118;2023-02-15T07:00:03;-4.30;99.90
8067;DHT22;4076;48.076;9.118;2023-02-15T07:02:30;-4.20;99.90
8067;DHT22;4076;48.076;9.118;2023-02-15T07:04:56;-4.10;99.90
8067;DHT22;4076;48.076;9.118;2023-02-15T07:07:22;-4.00;99.90
8067;DHT22;4076;48.076;9.118;2023-02-15T07:09:48;-4.00;99.90
8067;DHT22;4076;48.076;9.118;2023-02-15T07:12:13;-4.00;99.90
8067;DHT22;4076;48.076;9.118;2023-02-15T07:14:57;-3.90;99.90
8067;DHT22;4076;48.076;9.118;2023-02-15T07:17:23;-3.90;99.90
8067;DHT22;4076;48.076;9.118;2023-02-15T07:19:49;-3.80;99.90
8067;DHT22;4076;48.076;9.118;2023-02-15T07:22:15;-3.70;99.90
8067;DHT22;4076;48.076;9.118;2023-02-15T07:24:40;-3.60;99.90
8067;DHT22;4076;48.076;9.118;2023-02-15T07:27:07;-3.50;99.90
8067;DHT22;4076;48.076;9.118;2023-02-15T07:29:33;-3.50;99.90
8067;DHT22;4076;48.076;9.118;2023-02-15T07:31:58;-3.40;99.90
8067;DHT22;4076;48.076;9.118;2023-02-15T07:34:24;-3.10;99.90
8067;DHT22;4076;48.076;9.118;2023-02-15T07:36:51;-2.20;99.90
8067;DHT22;4076;48.076;9.118;2023-02-15T07:39:17;-0.50;99.90
8067;DHT22;4076;48.076;9.118;2023-02-15T07:41:42;1.00;99.90
8067;DHT22;4076;48.076;9.118;2023-02-15T07:44:12;2.20;99.90
8067;DHT22;4076;48.076;9.118;2023-02-15T07:46:38;3.20;99.90
8067;DHT22;4076;48.076;9.118;2023-02-15T07:49:04;4.70;97.00
8067;DHT22;4076;48.076;9.118;2023-02-15T07:51:29;6.50;88.00
8067;DHT22;4076;48.076;9.118;2023-02-15T07:53:55;8.70;79.90
8067;DHT22;4076;48.076;9.118;2023-02-15T07:56:21;11.30;65.70
8067;DHT22;4076;48.076;9.118;2023-02-15T07:58:46;13.80;54.00
8067;DHT22;4076;48.076;9.118;2023-02-15T08:01:23;16.20;45.90
8067;DHT22;4076;48.076;9.118;2023-02-15T08:03:49;18.40;48.30
8067;DHT22;4076;48.076;9.118;2023-02-15T08:08:41;21.60;49.90
8067;DHT22;4076;48.076;9.118;2023-02-15T08:11:24;22.90;34.60
8067;DHT22;4076;48.076;9.118;2023-02-15T08:13:52;24.30;42.20
8067;DHT22;4076;48.076;9.118;2023-02-15T08:18:57;26.50;29.80
8067;DHT22;4076;48.076;9.118;2023-02-15T08:21:26;26.90;27.70
8067;DHT22;4076;48.076;9.118;2023-02-15T08:23:52;27.60;26.40
8067;DHT22;4076;48.076;9.118;2023-02-15T08:26:19;28.10;24.40
8067;DHT22;4076;48.076;9.118;2023-02-15T08:28:44;27.90;24.20
8067;DHT22;4076;48.076;9.118;2023-02-15T08:31:12;28.50;24.30
8067;DHT22;4076;48.076;9.118;2023-02-15T08:33:40;29.00;23.90
8067;DHT22;4076;48.076;9.118;2023-02-15T08:36:13;29.50;28.70
8067;DHT22;4076;48.076;9.118;2023-02-15T08:38:40;29.80;29.90
8067;DHT22;4076;48.076;9.118;2023-02-15T08:41:21;30.10;28.60
8067;DHT22;4076;48.076;9.118;2023-02-15T08:43:51;29.70;22.00
8067;DHT22;4076;48.076;9.118;2023-02-15T08:46:17;29.20;22.10
8067;DHT22;4076;48.076;9.118;2023-02-15T08:48:44;28.60;22.40
8067;DHT22;4076;48.076;9.118;2023-02-15T08:51:15;28.60;22.90
8067;DHT22;4076;48.076;9.118;2023-02-15T08:53:44;29.20;22.60
8067;DHT22;4076;48.076;9.118;2023-02-15T08:56:11;29.40;22.20
8067;DHT22;4076;48.076;9.118;2023-02-15T08:58:37;29.30;22.00
8067;DHT22;4076;48.076;9.118;2023-02-15T09:01:12;29.00;22.40
8067;DHT22;4076;48.076;9.118;2023-02-15T09:03:39;29.60;22.60
8067;DHT22;4076;48.076;9.118;2023-02-15T09:06:05;30.00;22.30
8067;DHT22;4076;48.076;9.118;2023-02-15T09:08:31;29.90;22.00
8067;DHT22;4076;48.076;9.118;2023-02-15T09:11:09;29.80;22.00
8067;DHT22;4076;48.076;9.118;2023-02-15T09:13:35;29.60;22.20
8067;DHT22;4076;48.076;9.118;2023-02-15T09:16:03;29.80;22.30
8067;DHT22;4076;48.076;9.118;2023-02-15T09:18:31;30.00;22.10
8067;DHT22;4076;48.076;9.118;2023-02-15T09:21:08;30.80;22.00
8067;DHT22;4076;48.076;9.118;2023-02-15T09:23:34;30.50;21.90
8067;DHT22;4076;48.076;9.118;2023-02-15T09:26:06;30.20;21.70
8067;DHT22;4076;48.076;9.118;2023-02-15T09:28:32;30.60;22.30
8067;DHT22;4076;48.076;9.118;2023-02-15T09:31:17;31.20;22.30
8067;DHT22;4076;48.076;9.118;2023-02-15T09:33:46;31.80;23.10
8067;DHT22;4076;48.076;9.118;2023-02-15T09:36:33;31.50;21.80
8067;DHT22;4076;48.076;9.118;2023-02-15T10:09:10;30.50;22.60
8067;DHT22;4076;48.076;9.118;2023-02-15T10:14:56;30.50;23.00
8067;DHT22;4076;48.076;9.118;2023-02-15T10:17:51;30.00;23.40
8067;DHT22;4076;48.076;9.118;2023-02-15T10:26:11;29.10;24.40
8067;DHT22;4076;48.076;9.118;2023-02-15T10:28:46;29.30;24.40
8067;DHT22;4076;48.076;9.118;2023-02-15T10:31:34;29.50;24.10
8067;DHT22;4076;48.076;9.118;2023-02-15T10:34:14;29.10;24.50
8067;DHT22;4076;48.076;9.118;2023-02-15T10:39:58;28.70;25.10
8067;DHT22;4076;48.076;9.118;2023-02-15T10:42:34;28.20;25.40
8067;DHT22;4076;48.076;9.118;2023-02-15T10:48:29;26.60;26.50
8067;DHT22;4076;48.076;9.118;2023-02-15T10:51:06;25.20;27.60
8067;DHT22;4076;48.076;9.118;2023-02-15T10:56:19;23.10;35.00
8067;DHT22;4076;48.076;9.118;2023-02-15T10:59:16;22.40;39.50
8067;DHT22;4076;48.076;9.118;2023-02-15T11:02:04;21.70;49.10
8067;DHT22;4076;48.076;9.118;2023-02-15T11:07:38;20.30;36.30
8067;DHT22;4076;48.076;9.118;2023-02-15T11:10:35;19.50;34.10
8067;DHT22;4076;48.076;9.118;2023-02-15T11:13:08;19.10;37.80
8067;DHT22;4076;48.076;9.118;2023-02-15T11:15:44;19.00;38.70
8067;DHT22;4076;48.076;9.118;2023-02-15T11:18:27;19.00;39.60
8067;DHT22;4076;48.076;9.118;2023-02-15T11:20:59;18.90;41.10
8067;DHT22;4076;48.076;9.118;2023-02-15T11:23:27;18.70;46.00
8067;DHT22;4076;48.076;9.118;2023-02-15T11:29:01;19.00;43.80
8067;DHT22;4076;48.076;9.118;2023-02-15T11:31:43;19.10;45.40
8067;DHT22;4076;48.076;9.118;2023-02-15T11:34:37;19.50;47.00
8067;DHT22;4076;48.076;9.118;2023-02-15T11:37:08;21.50;48.40
8067;DHT22;4076;48.076;9.118;2023-02-15T11:39:35;22.00;47.20
8067;DHT22;4076;48.076;9.118;2023-02-15T11:42:06;22.80;47.10
8067;DHT22;4076;48.076;9.118;2023-02-15T11:44:42;23.30;54.00
8067;DHT22;4076;48.076;9.118;2023-02-15T11:47:11;23.80;46.20
8067;DHT22;4076;48.076;9.118;2023-02-15T11:52:12;24.60;36.60
8067;DHT22;4076;48.076;9.118;2023-02-15T11:54:43;25.00;34.00
8067;DHT22;4076;48.076;9.118;2023-02-15T11:59:40;25.00;31.90
8067;DHT22;4076;48.076;9.118;2023-02-15T12:02:21;24.60;31.90
8067;DHT22;4076;48.076;9.118;2023-02-15T12:04:54;23.80;31.40
8067;DHT22;4076;48.076;9.118;2023-02-15T12:07:33;22.50;31.70
8067;DHT22;4076;48.076;9.118;2023-02-15T12:10:04;20.90;32.80
8067;DHT22;4076;48.076;9.118;2023-02-15T12:12:34;19.20;34.10
8067;DHT22;4076;48.076;9.118;2023-02-15T12:15:02;18.00;36.20
8067;DHT22;4076;48.076;9.118;2023-02-15T12:17:33;16.40;38.20
8067;DHT22;4076;48.076;9.118;2023-02-15T12:20:24;16.30;38.60
8067;DHT22;4076;48.076;9.118;2023-02-15T12:23:12;15.70;39.10
8067;DHT22;4076;48.076;9.118;2023-02-15T12:25:51;15.20;40.90
8067;DHT22;4076;48.076;9.118;2023-02-15T12:28:38;15.10;41.80
8067;DHT22;4076;48.076;9.118;2023-02-15T12:33:51;14.70;42.40
8067;DHT22;4076;48.076;9.118;2023-02-15T12:36:24;14.60;42.70
8067;DHT22;4076;48.076;9.118;2023-02-15T12:41:37;14.50;42.90
8067;DHT22;4076;48.076;9.118;2023-02-15T12:44:23;14.50;43.40
8067;DHT22;4076;48.076;9.118;2023-02-15T12:47:18;14.50;43.50
8067;DHT22;4076;48.076;9.118;2023-02-15T12:50:03;14.40;43.70
8067;DHT22;4076;48.076;9.118;2023-02-15T12:52:29;14.50;43.10
8067;DHT22;4076;48.076;9.118;2023-02-15T12:54:54;14.50;43.10
8067;DHT22;4076;48.076;9.118;2023-02-15T12:57:29;14.40;43.40
8067;DHT22;4076;48.076;9.118;2023-02-15T13:00:00;14.30;43.30
8067;DHT22;4076;48.076;9.118;2023-02-15T13:05:26;14.10;43.80
8067;DHT22;4076;48.076;9.118;2023-02-15T13:10:37;14.00;44.50
8067;DHT22;4076;48.076;9.118;2023-02-15T13:13:15;14.00;43.90
8067;DHT22;4076;48.076;9.118;2023-02-15T13:15:46;14.00;44.20
8067;DHT22;4076;48.076;9.118;2023-02-15T13:18:23;14.00;44.30
8067;DHT22;4076;48.076;9.118;2023-02-15T13:20:51;14.00;44.90
8067;DHT22;4076;48.076;9.118;2023-02-15T13:23:36;13.90;44.60
8067;DHT22;4076;48.076;9.118;2023-02-15T13:26:04;13.80;44.60
8067;DHT22;4076;48.076;9.118;2023-02-15T13:28:42;13.80;44.90
8067;DHT22;4076;48.076;9.118;2023-02-15T13:31:18;13.70;45.10
8067;DHT22;4076;48.076;9.118;2023-02-15T13:33:48;13.70;45.20
8067;DHT22;4076;48.076;9.118;2023-02-15T13:36:25;13.70;45.00
8067;DHT22;4076;48.076;9.118;2023-02-15T13:52:24;13.50;45.20
8067;DHT22;4076;48.076;9.118;2023-02-15T14:00:44;13.50;45.30
8067;DHT22;4076;48.076;9.118;2023-02-15T14:19:52;13.20;45.10
8067;DHT22;4076;48.076;9.118;2023-02-15T14:22:40;13.20;45.30
8067;DHT22;4076;48.076;9.118;2023-02-15T14:30:34;13.10;45.30
8067;DHT22;4076;48.076;9.118;2023-02-15T14:33:21;13.10;46.40
8067;DHT22;4076;48.076;9.118;2023-02-15T14:35:51;13.10;50.80
8067;DHT22;4076;48.076;9.118;2023-02-15T14:38:42;13.00;52.00
8067;DHT22;4076;48.076;9.118;2023-02-15T14:41:18;12.90;52.20
8067;DHT22;4076;48.076;9.118;2023-02-15T14:44:00;13.00;51.20
8067;DHT22;4076;48.076;9.118;2023-02-15T14:49:17;12.70;53.20
8067;DHT22;4076;48.076;9.118;2023-02-15T14:57:20;12.40;53.80
8067;DHT22;4076;48.076;9.118;2023-02-15T14:59:58;12.30;54.50
8067;DHT22;4076;48.076;9.118;2023-02-15T15:07:46;11.90;54.70
8067;DHT22;4076;48.076;9.118;2023-02-15T15:12:46;11.80;55.60
8067;DHT22;4076;48.076;9.118;2023-02-15T15:15:32;11.80;55.30
8067;DHT22;4076;48.076;9.118;2023-02-15T15:18:07;11.70;55.50
8067;DHT22;4076;48.076;9.118;2023-02-15T15:20:43;11.60;55.70
8067;DHT22;4076;48.076;9.118;2023-02-15T15:25:57;11.40;62.00
8067;DHT22;4076;48.076;9.118;2023-02-15T15:49:01;10.00;61.80
8067;DHT22;4076;48.076;9.118;2023-02-15T15:51:31;9.70;56.70
8067;DHT22;4076;48.076;9.118;2023-02-15T15:53:57;9.60;57.90
8067;DHT22;4076;48.076;9.118;2023-02-15T15:56:28;9.40;65.10
8067;DHT22;4076;48.076;9.118;2023-02-15T15:58:59;9.10;61.50
8067;DHT22;4076;48.076;9.118;2023-02-15T16:01:28;8.90;65.20
8067;DHT22;4076;48.076;9.118;2023-02-15T16:03:56;8.80;67.30
8067;DHT22;4076;48.076;9.118;2023-02-15T16:06:37;8.50;71.20
8067;DHT22;4076;48.076;9.118;2023-02-15T16:09:14;8.10;78.20
8067;DHT22;4076;48.076;9.118;2023-02-15T16:11:41;7.90;73.50
8067;DHT22;4076;48.076;9.118;2023-02-15T16:14:16;7.60;65.00
8067;DHT22;4076;48.076;9.118;2023-02-15T16:16:48;7.40;64.90
8067;DHT22;4076;48.076;9.118;2023-02-15T16:19:21;7.30;68.00
8067;DHT22;4076;48.076;9.118;2023-02-15T16:21:48;7.10;65.70
8067;DHT22;4076;48.076;9.118;2023-02-15T16:27:30;6.80;59.80
8067;DHT22;4076;48.076;9.118;2023-02-15T16:29:57;6.80;60.50
8067;DHT22;4076;48.076;9.118;2023-02-15T16:32:25;6.60;60.70
8067;DHT22;4076;48.076;9.118;2023-02-15T16:34:58;6.40;62.00
8067;DHT22;4076;48.076;9.118;2023-02-15T16:37:32;6.30;63.40
8067;DHT22;4076;48.076;9.118;2023-02-15T16:39:58;6.10;64.10
8067;DHT22;4076;48.076;9.118;2023-02-15T16:42:24;5.90;65.80
8067;DHT22;4076;48.076;9.118;2023-02-15T16:45:16;5.80;65.50
8067;DHT22;4076;48.076;9.118;2023-02-15T16:47:49;5.60;66.40
8067;DHT22;4076;48.076;9.118;2023-02-15T16:52:44;5.20;67.40
8067;DHT22;4076;48.076;9.118;2023-02-15T16:55:24;5.10;67.90
8067;DHT22;4076;48.076;9.118;2023-02-15T16:57:51;4.90;70.70
8067;DHT22;4076;48.076;9.118;2023-02-15T17:00:21;4.80;72.80
8067;DHT22;4076;48.076;9.118;2023-02-15T17:02:59;4.80;78.90
8067;DHT22;4076;48.076;9.118;2023-02-15T17:05:32;4.70;84.30
8067;DHT22;4076;48.076;9.118;2023-02-15T17:08:12;4.60;87.10
8067;DHT22;4076;48.076;9.118;2023-02-15T17:10:40;4.40;89.80
8067;DHT22;4076;48.076;9.118;2023-02-15T17:13:11;4.30;91.00
8067;DHT22;4076;48.076;9.118;2023-02-15T17:18:23;4.20;93.60
8067;DHT22;4076;48.076;9.118;2023-02-15T17:20:52;4.00;95.90
8067;DHT22;4076;48.076;9.118;2023-02-15T17:23:41;4.00;96.30
8067;DHT22;4076;48.076;9.118;2023-02-15T17:26:14;3.80;97.00
8067;DHT22;4076;48.076;9.118;2023-02-15T17:28:50;3.80;98.30
8067;DHT22;4076;48.076;9.118;2023-02-15T17:31:17;3.70;99.30
8067;DHT22;4076;48.076;9.118;2023-02-15T17:33:44;3.60;98.70
8067;DHT22;4076;48.076;9.118;2023-02-15T17:36:18;3.70;99.70
8067;DHT22;4076;48.076;9.118;2023-02-15T17:39:21;3.50;99.90
8067;DHT22;4076;48.076;9.118;2023-02-15T17:41:47;3.40;99.90
8067;DHT22;4076;48.076;9.118;2023-02-15T17:44:13;3.20;99.90
8067;DHT22;4076;48.076;9.118;2023-02-15T17:46:41;3.20;99.90
8067;DHT22;4076;48.076;9.118;2023-02-15T17:49:11;3.00;99.90
8067;DHT22;4076;48.076;9.118;2023-02-15T17:51:39;3.00;99.90
8067;DHT22;4076;48.076;9.118;2023-02-15T17:54:08;2.90;99.90
8067;DHT22;4076;48.076;9.118;2023-02-15T17:56:53;2.80;99.90
8067;DHT22;4076;48.076;9.118;2023-02-15T17:59:18;2.70;99.90
8067;DHT22;4076;48.076;9.118;2023-02-15T18:01:48;2.80;99.90
8067;DHT22;4076;48.076;9.118;2023-02-15T18:04:34;2.60;99.90
8067;DHT22;4076;48.076;9.118;2023-02-15T18:07:19;2.50;99.90
8067;DHT22;4076;48.076;9.118;2023-02-15T18:10:18;2.50;99.90
8067;DHT22;4076;48.076;9.118;2023-02-15T18:13:02;2.40;99.90
8067;DHT22;4076;48.076;9.118;2023-02-15T18:15:28;2.30;99.90
8067;DHT22;4076;48.076;9.118;2023-02-15T18:17:54;2.30;99.90
8067;DHT22;4076;48.076;9.118;2023-02-15T18:20:27;2.30;99.90
8067;DHT22;4076;48.076;9.118;2023-02-15T18:22:53;2.20;99.90
8067;DHT22;4076;48.076;9.118;2023-02-15T18:25:21;2.20;99.90
8067;DHT22;4076;48.076;9.118;2023-02-15T18:27:48;2.00;99.90
8067;DHT22;4076;48.076;9.118;2023-02-15T18:30:20;1.90;99.90
8067;DHT22;4076;48.076;9.118;2023-02-15T18:32:47;1.90;99.90
8067;DHT22;4076;48.076;9.118;2023-02-15T18:35:19;1.80;99.90
8067;DHT22;4076;48.076;9.118;2023-02-15T18:37:46;1.70;99.90
8067;DHT22;4076;48.076;9.118;2023-02-15T18:40:20;1.60;99.90
8067;DHT22;4076;48.076;9.118;2023-02-15T18:42:47;1.60;99.90
8067;DHT22;4076;48.076;9.118;2023-02-15T18:45:16;1.60;99.90
8067;DHT22;4076;48.076;9.118;2023-02-15T18:47:42;1.70;99.90
8067;DHT22;4076;48.076;9.118;2023-02-15T18:50:08;1.60;99.90
8067;DHT22;4076;48.076;9.118;2023-02-15T18:52:36;1.60;99.90
8067;DHT22;4076;48.076;9.118;2023-02-15T18:55:12;1.60;99.90
8067;DHT22;4076;48.076;9.118;2023-02-15T18:57:40;1.40;99.90
8067;DHT22;4076;48.076;9.118;2023-02-15T19:00:17;1.30;99.90
8067;DHT22;4076;48.076;9.118;2023-02-15T19:02:44;1.30;99.90
8067;DHT22;4076;48.076;9.118;2023-02-15T19:05:10;1.30;99.90
8067;DHT22;4076;48.076;9.118;2023-02-15T19:07:36;1.40;99.90
8067;DHT22;4076;48.076;9.118;2023-02-15T19:10:05;1.40;99.90
8067;DHT22;4076;48.076;9.118;2023-02-15T19:12:32;1.40;99.90
8067;DHT22;4076;48.076;9.118;2023-02-15T19:14:58;1.30;99.90
8067;DHT22;4076;48.076;9.118;2023-02-15T19:17:24;1.20;99.90
8067;DHT22;4076;48.076;9.118;2023-02-15T19:19:51;1.20;99.90
8067;DHT22;4076;48.076;9.118;2023-02-15T19:22:27;1.10;99.90
8067;DHT22;4076;48.076;9.118;2023-02-15T19:24:55;1.10;99.90
8067;DHT22;4076;48.076;9.118;2023-02-15T19:27:23;1.00;99.90
8067;DHT22;4076;48.076;9.118;2023-02-15T19:29:50;1.00;99.90
8067;DHT22;4076;48.076;9.118;2023-02-15T19:32:16;1.00;99.90
8067;DHT22;4076;48.076;9.118;2023-02-15T19:34:42;0.90;99.90
8067;DHT22;4076;48.076;9.118;2023-02-15T19:37:19;0.90;99.90
8067;DHT22;4076;48.076;9.118;2023-02-15T19:39:46;0.90;99.90
8067;DHT22;4076;48.076;9.118;2023-02-15T19:42:13;0.80;99.90
8067;DHT22;4076;48.076;9.118;2023-02-15T19:44:39;0.80;99.90
8067;DHT22;4076;48.076;9.118;2023-02-15T19:47:12;0.80;99.90
8067;DHT22;4076;48.076;9.118;2023-02-15T19:49:38;0.70;99.90